ESSD/BLE METAR and TAF weather

Enter ICAO airport designator
Station Type Date Time Source
ESSD METAR 2019/04/18 20:20 UTC NOAA

ESSD 182020Z AUTO 26008KT 9999 NCD 06/M00 Q1036


Station Type Date Time Source
ESSD Decoded METAR 2019/04/18 20:20 UTC NOAA

Borlange, Sweden (ESSD) 60-26N 015-31E 0M
Apr 18, 2019 - 04:20 PM EDT / 2019.04.18 2020 UTC
Wind: from the W (260 degrees) at 9 MPH (8 KT):0
Visibility: greater than 7 mile(s):0
Temperature: 42 F (6 C)
Dew Point: 32 F (0 C)
Relative Humidity: 65%
Pressure (altimeter): 30.59 in. Hg (1036 hPa)
ob: ESSD 182020Z AUTO 26008KT 9999 NCD 06/M00 Q1036
cycle: 20

Station Type Date Time Source
ESSD TAF 2018/05/02 04:48 UTC NOAA

TAF TAF ESSD 020320Z 0204/0412 27008KT 9999 BKN019 PROB40 0204/0209 BKN006

Example: see airport list